Hill Air Force Base Ogden US
ICAO: KHIF
IATA: HIF
Category: Medium
Scheduled Services: No

Elevation: 4789 ft
TransAlt. 18000 ft.

Airport Communications:
SALT LAKE CITY APP:25.787
SALT LAKE CITY APP:31.925
SALT LAKE CITY APP:121.1
ATIS:134.925
CLNC DEL:124.1
SALT LAKE CITY DEP:121.1
GND:121.6
419 OPS:25.21
PMSV METRO:34.23
COMD POST:38.13
PTD:139.3
TWR:127.15

KHIF Zoom In..

Runways:

(A) RW 14 length 13508 ft width 200 ft
ILS 109.90 / hdg 139

(B) RW 32 length 13508 ft width 200 ft
---- / hdg 319

Location; KHIF
Day. 20 / Time. 19.58 Zulu
* Altimeter: 30.11
* Temperature: 32° c. 89.6°f.
* Wind from: 150° Speed 08 kn.
Dewpoint: 08° c.
Visibility: 10 Statute Miles.
Clouds: Broken 14000 ft.

KHIF 201958Z AUTO 15008KT 10SM BKN140 32/08 A3011 RMK AO2 SLP123 T03170080


Wind From 150°
Speed 08 kn.

 
 
jpsmedia.com for Web Design worldairports.se 2018   terms of use